sensor_id;sensor_type;location;lat;lon;timestamp;pressure;altitude;pressure_sealevel;temperature
75658;BMP280;64255;49.892;17.884;2023-03-19T06:14:28;98827.44;;;6.23
75658;BMP280;64255;49.892;17.884;2023-03-19T06:16:56;98836.84;;;6.53
75658;BMP280;64255;49.892;17.884;2023-03-19T06:19:23;98838.25;;;6.16
75658;BMP280;64255;49.892;17.884;2023-03-19T06:21:51;98827.38;;;5.68
75658;BMP280;64255;49.892;17.884;2023-03-19T06:24:18;98831.31;;;5.30
75658;BMP280;64255;49.892;17.884;2023-03-19T06:26:46;98830.16;;;5.31
75658;BMP280;64255;49.892;17.884;2023-03-19T06:29:13;98829.50;;;5.73
75658;BMP280;64255;49.892;17.884;2023-03-19T06:31:41;98839.19;;;6.64
75658;BMP280;64255;49.892;17.884;2023-03-19T06:34:08;98827.78;;;7.82
75658;BMP280;64255;49.892;17.884;2023-03-19T06:36:36;98826.47;;;7.77
75658;BMP280;64255;49.892;17.884;2023-03-19T06:39:04;98835.81;;;8.35
75658;BMP280;64255;49.892;17.884;2023-03-19T06:41:32;98835.97;;;8.82
75658;BMP280;64255;49.892;17.884;2023-03-19T06:43:59;98825.03;;;10.15
75658;BMP280;64255;49.892;17.884;2023-03-19T06:46:26;98826.63;;;10.31
75658;BMP280;64255;49.892;17.884;2023-03-19T06:48:53;98821.47;;;9.11
75658;BMP280;64255;49.892;17.884;2023-03-19T06:51:22;98821.25;;;9.98
75658;BMP280;64255;49.892;17.884;2023-03-19T06:53:49;98813.75;;;9.50
75658;BMP280;64255;49.892;17.884;2023-03-19T06:56:16;98824.88;;;10.19
75658;BMP280;64255;49.892;17.884;2023-03-19T06:58:43;98823.47;;;10.09
75658;BMP280;64255;49.892;17.884;2023-03-19T07:01:11;98824.63;;;10.75
75658;BMP280;64255;49.892;17.884;2023-03-19T07:03:39;98821.28;;;9.79
75658;BMP280;64255;49.892;17.884;2023-03-19T07:06:06;98826.81;;;11.40
75658;BMP280;64255;49.892;17.884;2023-03-19T07:08:34;98829.03;;;11.86
75658;BMP280;64255;49.892;17.884;2023-03-19T07:11:06;98831.44;;;12.76
75658;BMP280;64255;49.892;17.884;2023-03-19T07:13:33;98839.44;;;12.49
75658;BMP280;64255;49.892;17.884;2023-03-19T07:16:00;98835.34;;;12.54
75658;BMP280;64255;49.892;17.884;2023-03-19T07:18:27;98839.31;;;12.79
75658;BMP280;64255;49.892;17.884;2023-03-19T07:20:54;98832.34;;;10.97
75658;BMP280;64255;49.892;17.884;2023-03-19T07:23:22;98835.00;;;11.21
75658;BMP280;64255;49.892;17.884;2023-03-19T07:25:49;98837.91;;;12.84
75658;BMP280;64255;49.892;17.884;2023-03-19T07:28:16;98832.78;;;12.24
75658;BMP280;64255;49.892;17.884;2023-03-19T07:30:44;98837.63;;;11.60
75658;BMP280;64255;49.892;17.884;2023-03-19T07:33:11;98834.31;;;11.50
75658;BMP280;64255;49.892;17.884;2023-03-19T07:35:39;98833.28;;;11.93
75658;BMP280;64255;49.892;17.884;2023-03-19T07:38:06;98836.03;;;11.98
75658;BMP280;64255;49.892;17.884;2023-03-19T07:40:34;98844.53;;;11.97
75658;BMP280;64255;49.892;17.884;2023-03-19T07:43:02;98846.75;;;12.69
75658;BMP280;64255;49.892;17.884;2023-03-19T07:45:29;98841.75;;;12.21
75658;BMP280;64255;49.892;17.884;2023-03-19T07:47:56;98844.88;;;12.19
75658;BMP280;64255;49.892;17.884;2023-03-19T07:50:24;98835.81;;;12.73
75658;BMP280;64255;49.892;17.884;2023-03-19T07:52:51;98838.16;;;13.33
75658;BMP280;64255;49.892;17.884;2023-03-19T07:55:19;98834.63;;;12.74
75658;BMP280;64255;49.892;17.884;2023-03-19T07:57:46;98836.75;;;13.69
75658;BMP280;64255;49.892;17.884;2023-03-19T08:00:15;98834.91;;;13.49
75658;BMP280;64255;49.892;17.884;2023-03-19T08:02:42;98837.56;;;14.19
75658;BMP280;64255;49.892;17.884;2023-03-19T08:05:11;98839.00;;;13.77
75658;BMP280;64255;49.892;17.884;2023-03-19T08:07:38;98841.91;;;14.11
75658;BMP280;64255;49.892;17.884;2023-03-19T08:10:07;98836.72;;;14.45
75658;BMP280;64255;49.892;17.884;2023-03-19T08:12:35;98827.97;;;14.12
75658;BMP280;64255;49.892;17.884;2023-03-19T08:15:02;98830.09;;;13.07
75658;BMP280;64255;49.892;17.884;2023-03-19T08:17:29;98839.81;;;13.04
75658;BMP280;64255;49.892;17.884;2023-03-19T08:19:56;98841.94;;;13.73
75658;BMP280;64255;49.892;17.884;2023-03-19T08:22:24;98852.63;;;15.48
75658;BMP280;64255;49.892;17.884;2023-03-19T08:24:51;98843.13;;;16.34
75658;BMP280;64255;49.892;17.884;2023-03-19T08:27:18;98847.22;;;15.31
75658;BMP280;64255;49.892;17.884;2023-03-19T08:29:46;98855.00;;;16.78
75658;BMP280;64255;49.892;17.884;2023-03-19T08:32:13;98841.44;;;17.20
75658;BMP280;64255;49.892;17.884;2023-03-19T08:34:40;98846.81;;;17.26
75658;BMP280;64255;49.892;17.884;2023-03-19T08:37:08;98840.38;;;18.03
75658;BMP280;64255;49.892;17.884;2023-03-19T08:39:35;98847.03;;;18.27
75658;BMP280;64255;49.892;17.884;2023-03-19T08:42:03;98847.97;;;19.32
75658;BMP280;64255;49.892;17.884;2023-03-19T08:44:31;98849.75;;;19.30
75658;BMP280;64255;49.892;17.884;2023-03-19T08:46:58;98847.41;;;19.07
75658;BMP280;64255;49.892;17.884;2023-03-19T08:49:26;98837.81;;;18.54
75658;BMP280;64255;49.892;17.884;2023-03-19T08:51:53;98845.78;;;16.93
75658;BMP280;64255;49.892;17.884;2023-03-19T08:54:20;98844.94;;;16.73
75658;BMP280;64255;49.892;17.884;2023-03-19T08:56:48;98834.59;;;17.13
75658;BMP280;64255;49.892;17.884;2023-03-19T08:59:15;98840.84;;;16.97
75658;BMP280;64255;49.892;17.884;2023-03-19T09:01:43;98823.09;;;16.65
75658;BMP280;64255;49.892;17.884;2023-03-19T09:04:09;98825.34;;;15.91
75658;BMP280;64255;49.892;17.884;2023-03-19T09:06:37;98827.84;;;15.33
75658;BMP280;64255;49.892;17.884;2023-03-19T09:09:04;98830.31;;;15.48
75658;BMP280;64255;49.892;17.884;2023-03-19T09:11:31;98821.72;;;15.38
75658;BMP280;64255;49.892;17.884;2023-03-19T09:13:59;98825.41;;;15.57
75658;BMP280;64255;49.892;17.884;2023-03-19T15:26:40;98616.53;;;15.13
75658;BMP280;64255;49.892;17.884;2023-03-19T15:29:08;98620.00;;;14.74
75658;BMP280;64255;49.892;17.884;2023-03-19T15:31:46;98616.31;;;14.77
75658;BMP280;64255;49.892;17.884;2023-03-19T15:34:24;98616.34;;;14.49
75658;BMP280;64255;49.892;17.884;2023-03-19T15:37:05;98606.75;;;14.19
75658;BMP280;64255;49.892;17.884;2023-03-19T15:39:48;98612.38;;;14.16
75658;BMP280;64255;49.892;17.884;2023-03-19T15:42:22;98615.56;;;14.20
75658;BMP280;64255;49.892;17.884;2023-03-19T15:45:13;98603.00;;;13.94
75658;BMP280;64255;49.892;17.884;2023-03-19T15:50:38;98620.13;;;13.85
75658;BMP280;64255;49.892;17.884;2023-03-19T15:53:13;98620.94;;;14.26
75658;BMP280;64255;49.892;17.884;2023-03-19T15:55:41;98630.00;;;14.17
75658;BMP280;64255;49.892;17.884;2023-03-19T15:58:17;98630.50;;;14.32
75658;BMP280;64255;49.892;17.884;2023-03-19T16:00:46;98630.06;;;14.45
75658;BMP280;64255;49.892;17.884;2023-03-19T16:03:18;98622.69;;;14.51
75658;BMP280;64255;49.892;17.884;2023-03-19T16:06:19;98628.09;;;14.68
75658;BMP280;64255;49.892;17.884;2023-03-19T16:08:50;98629.06;;;14.65
75658;BMP280;64255;49.892;17.884;2023-03-19T16:11:37;98629.78;;;14.26
75658;BMP280;64255;49.892;17.884;2023-03-19T16:16:48;98634.91;;;14.24
75658;BMP280;64255;49.892;17.884;2023-03-19T16:22:00;98628.06;;;14.34
75658;BMP280;64255;49.892;17.884;2023-03-19T16:27:16;98647.00;;;13.74
75658;BMP280;64255;49.892;17.884;2023-03-19T16:29:56;98645.84;;;13.43
75658;BMP280;64255;49.892;17.884;2023-03-19T16:32:36;98651.50;;;13.51
75658;BMP280;64255;49.892;17.884;2023-03-19T16:35:12;98651.88;;;13.27
75658;BMP280;64255;49.892;17.884;2023-03-19T16:37:46;98661.75;;;13.09
75658;BMP280;64255;49.892;17.884;2023-03-19T16:42:43;98656.59;;;13.92
75658;BMP280;64255;49.892;17.884;2023-03-19T16:45:20;98662.41;;;13.79
75658;BMP280;64255;49.892;17.884;2023-03-19T16:47:51;98649.38;;;13.61
75658;BMP280;64255;49.892;17.884;2023-03-19T16:50:32;98664.09;;;13.77
75658;BMP280;64255;49.892;17.884;2023-03-19T16:53:04;98672.03;;;13.48
75658;BMP280;64255;49.892;17.884;2023-03-19T16:55:34;98671.28;;;13.48
75658;BMP280;64255;49.892;17.884;2023-03-19T16:58:26;98665.97;;;13.16
75658;BMP280;64255;49.892;17.884;2023-03-19T17:00:54;98672.50;;;13.09
75658;BMP280;64255;49.892;17.884;2023-03-19T17:03:21;98679.19;;;12.41
75658;BMP280;64255;49.892;17.884;2023-03-19T17:05:48;98682.69;;;12.99
75658;BMP280;64255;49.892;17.884;2023-03-19T17:08:16;98687.69;;;13.12
75658;BMP280;64255;49.892;17.884;2023-03-19T17:10:47;98691.56;;;13.11
75658;BMP280;64255;49.892;17.884;2023-03-19T17:13:24;98697.53;;;12.68
75658;BMP280;64255;49.892;17.884;2023-03-19T17:15:51;98685.81;;;12.66
75658;BMP280;64255;49.892;17.884;2023-03-19T17:18:23;98693.91;;;12.98
75658;BMP280;64255;49.892;17.884;2023-03-19T17:21:10;98693.81;;;12.60
75658;BMP280;64255;49.892;17.884;2023-03-19T17:23:38;98695.78;;;12.92
75658;BMP280;64255;49.892;17.884;2023-03-19T17:26:27;98694.63;;;12.98
75658;BMP280;64255;49.892;17.884;2023-03-19T17:28:56;98695.72;;;12.54
75658;BMP280;64255;49.892;17.884;2023-03-19T17:31:31;98698.25;;;12.69
75658;BMP280;64255;49.892;17.884;2023-03-19T17:34:19;98710.38;;;12.32
75658;BMP280;64255;49.892;17.884;2023-03-19T17:36:57;98712.97;;;11.70
75658;BMP280;64255;49.892;17.884;2023-03-19T17:39:26;98704.44;;;11.72
75658;BMP280;64255;49.892;17.884;2023-03-19T17:41:53;98706.06;;;11.99
75658;BMP280;64255;49.892;17.884;2023-03-19T17:44:21;98709.00;;;12.01
75658;BMP280;64255;49.892;17.884;2023-03-19T17:46:52;98707.13;;;11.87
75658;BMP280;64255;49.892;17.884;2023-03-19T17:49:26;98710.72;;;11.84
75658;BMP280;64255;49.892;17.884;2023-03-19T17:51:55;98709.16;;;11.27
75658;BMP280;64255;49.892;17.884;2023-03-19T17:54:22;98713.03;;;11.26
75658;BMP280;64255;49.892;17.884;2023-03-19T17:56:50;98718.06;;;10.79
75658;BMP280;64255;49.892;17.884;2023-03-19T17:59:17;98713.03;;;11.11
75658;BMP280;64255;49.892;17.884;2023-03-19T18:01:45;98719.50;;;11.49
75658;BMP280;64255;49.892;17.884;2023-03-19T18:04:19;98713.34;;;10.88
75658;BMP280;64255;49.892;17.884;2023-03-19T18:06:54;98717.81;;;10.92
75658;BMP280;64255;49.892;17.884;2023-03-19T18:09:25;98718.34;;;10.96
75658;BMP280;64255;49.892;17.884;2023-03-19T18:11:54;98718.91;;;10.85
75658;BMP280;64255;49.892;17.884;2023-03-19T18:14:21;98722.78;;;10.84
75658;BMP280;64255;49.892;17.884;2023-03-19T18:16:49;98720.41;;;10.62
75658;BMP280;64255;49.892;17.884;2023-03-19T18:19:35;98725.63;;;10.17
75658;BMP280;64255;49.892;17.884;2023-03-19T18:22:16;98726.81;;;10.16
75658;BMP280;64255;49.892;17.884;2023-03-19T18:24:44;98726.63;;;10.19
75658;BMP280;64255;49.892;17.884;2023-03-19T18:27:11;98720.47;;;10.28
75658;BMP280;64255;49.892;17.884;2023-03-19T18:29:39;98724.63;;;9.62
75658;BMP280;64255;49.892;17.884;2023-03-19T18:32:15;98720.50;;;9.95
75658;BMP280;64255;49.892;17.884;2023-03-19T18:34:43;98736.28;;;10.26
75658;BMP280;64255;49.892;17.884;2023-03-19T18:37:16;98731.31;;;10.34
75658;BMP280;64255;49.892;17.884;2023-03-19T18:39:44;98738.59;;;10.33
75658;BMP280;64255;49.892;17.884;2023-03-19T18:42:14;98726.94;;;9.88
75658;BMP280;64255;49.892;17.884;2023-03-19T18:44:42;98730.25;;;10.07
75658;BMP280;64255;49.892;17.884;2023-03-19T18:47:13;98730.47;;;9.51
75658;BMP280;64255;49.892;17.884;2023-03-19T18:49:42;98727.63;;;9.55
75658;BMP280;64255;49.892;17.884;2023-03-19T18:52:13;98734.69;;;9.77
75658;BMP280;64255;49.892;17.884;2023-03-19T18:54:41;98730.22;;;9.21
75658;BMP280;64255;49.892;17.884;2023-03-19T18:57:12;98738.81;;;8.88
75658;BMP280;64255;49.892;17.884;2023-03-19T18:59:41;98728.09;;;8.61
75658;BMP280;64255;49.892;17.884;2023-03-19T19:04:53;98741.19;;;8.96
75658;BMP280;64255;49.892;17.884;2023-03-19T19:07:20;98739.06;;;8.03
75658;BMP280;64255;49.892;17.884;2023-03-19T19:09:48;98737.75;;;8.58
75658;BMP280;64255;49.892;17.884;2023-03-19T19:12:16;98740.16;;;9.02
75658;BMP280;64255;49.892;17.884;2023-03-19T19:14:45;98737.66;;;9.17
75658;BMP280;64255;49.892;17.884;2023-03-19T19:17:20;98743.13;;;9.32
75658;BMP280;64255;49.892;17.884;2023-03-19T19:19:48;98744.56;;;8.68
75658;BMP280;64255;49.892;17.884;2023-03-19T19:22:18;98748.19;;;8.84
75658;BMP280;64255;49.892;17.884;2023-03-19T19:24:46;98749.97;;;8.87
75658;BMP280;64255;49.892;17.884;2023-03-19T19:27:24;98743.72;;;9.18
75658;BMP280;64255;49.892;17.884;2023-03-19T19:29:52;98740.91;;;8.94
75658;BMP280;64255;49.892;17.884;2023-03-19T19:32:28;98741.94;;;9.15
75658;BMP280;64255;49.892;17.884;2023-03-19T19:34:56;98743.72;;;8.71
75658;BMP280;64255;49.892;17.884;2023-03-19T19:37:23;98740.59;;;9.01
75658;BMP280;64255;49.892;17.884;2023-03-19T19:39:51;98734.34;;;9.32
75658;BMP280;64255;49.892;17.884;2023-03-19T19:42:21;98741.22;;;9.14
75658;BMP280;64255;49.892;17.884;2023-03-19T19:44:55;98735.97;;;9.29
75658;BMP280;64255;49.892;17.884;2023-03-19T19:47:23;98734.47;;;9.37
75658;BMP280;64255;49.892;17.884;2023-03-19T19:49:50;98740.16;;;9.30
75658;BMP280;64255;49.892;17.884;2023-03-19T19:52:18;98750.50;;;9.47
75658;BMP280;64255;49.892;17.884;2023-03-19T19:54:46;98746.94;;;9.41
75658;BMP280;64255;49.892;17.884;2023-03-19T19:57:19;98740.72;;;9.44
75658;BMP280;64255;49.892;17.884;2023-03-19T19:59:50;98748.44;;;9.42
75658;BMP280;64255;49.892;17.884;2023-03-19T20:02:20;98741.19;;;9.42
75658;BMP280;64255;49.892;17.884;2023-03-19T20:04:48;98742.22;;;9.45
75658;BMP280;64255;49.892;17.884;2023-03-19T20:07:16;98746.53;;;9.42
75658;BMP280;64255;49.892;17.884;2023-03-19T20:09:43;98745.47;;;9.39
75658;BMP280;64255;49.892;17.884;2023-03-19T20:12:31;98747.88;;;9.19
75658;BMP280;64255;49.892;17.884;2023-03-19T20:14:59;98746.53;;;9.23
75658;BMP280;64255;49.892;17.884;2023-03-19T20:17:27;98750.69;;;9.25
75658;BMP280;64255;49.892;17.884;2023-03-19T20:19:54;98750.69;;;9.25
75658;BMP280;64255;49.892;17.884;2023-03-19T20:22:22;98745.69;;;9.17
75658;BMP280;64255;49.892;17.884;2023-03-19T20:24:49;98743.13;;;9.04
75658;BMP280;64255;49.892;17.884;2023-03-19T20:27:21;98748.47;;;9.14
75658;BMP280;64255;49.892;17.884;2023-03-19T20:29:49;98750.84;;;9.02
75658;BMP280;64255;49.892;17.884;2023-03-19T20:32:35;98758.56;;;9.00
75658;BMP280;64255;49.892;17.884;2023-03-19T20:35:05;98750.84;;;9.02
75658;BMP280;64255;49.892;17.884;2023-03-19T20:37:33;98749.97;;;8.96
75658;BMP280;64255;49.892;17.884;2023-03-19T20:40:00;98753.22;;;9.00
75658;BMP280;64255;49.892;17.884;2023-03-19T20:42:29;98753.38;;;8.97
75658;BMP280;64255;49.892;17.884;2023-03-19T20:44:58;98745.19;;;8.91
75658;BMP280;64255;49.892;17.884;2023-03-19T20:47:27;98745.81;;;8.86
75658;BMP280;64255;49.892;17.884;2023-03-19T20:49:55;98746.53;;;8.86
75658;BMP280;64255;49.892;17.884;2023-03-19T20:52:22;98745.63;;;8.71
75658;BMP280;64255;49.892;17.884;2023-03-19T20:54:49;98739.84;;;8.82
75658;BMP280;64255;49.892;17.884;2023-03-19T20:57:26;98744.75;;;8.65
75658;BMP280;64255;49.892;17.884;2023-03-19T20:59:54;98746.38;;;8.71
75658;BMP280;64255;49.892;17.884;2023-03-19T21:02:22;98749.50;;;8.79
75658;BMP280;64255;49.892;17.884;2023-03-19T21:04:50;98742.06;;;8.74
75658;BMP280;64255;49.892;17.884;2023-03-19T21:07:31;98742.22;;;8.70
75658;BMP280;64255;49.892;17.884;2023-03-19T21:10:06;98745.31;;;8.60
75658;BMP280;64255;49.892;17.884;2023-03-19T21:12:38;98741.44;;;8.61
75658;BMP280;64255;49.892;17.884;2023-03-19T21:15:13;98740.16;;;8.75
75658;BMP280;64255;49.892;17.884;2023-03-19T21:17:40;98751.72;;;8.62
75658;BMP280;64255;49.892;17.884;2023-03-19T21:20:20;98744.44;;;8.63
75658;BMP280;64255;49.892;17.884;2023-03-19T21:25:27;98743.25;;;8.54
75658;BMP280;64255;49.892;17.884;2023-03-19T21:28:05;98744.09;;;8.51
75658;BMP280;64255;49.892;17.884;2023-03-19T21:30:40;98748.72;;;8.60
75658;BMP280;64255;49.892;17.884;2023-03-19T21:33:24;98744.72;;;8.55
75658;BMP280;64255;49.892;17.884;2023-03-19T21:35:53;98751.97;;;8.46
75658;BMP280;64255;49.892;17.884;2023-03-19T21:38:21;98744.09;;;8.42
75658;BMP280;64255;49.892;17.884;2023-03-19T21:40:54;98747.16;;;8.31
75658;BMP280;64255;49.892;17.884;2023-03-19T21:43:31;98739.16;;;8.31
75658;BMP280;64255;49.892;17.884;2023-03-19T21:45:59;98750.72;;;8.28
75658;BMP280;64255;49.892;17.884;2023-03-19T21:48:32;98746.00;;;8.41
75658;BMP280;64255;49.892;17.884;2023-03-19T21:51:01;98749.13;;;8.40
75658;BMP280;64255;49.892;17.884;2023-03-19T21:53:29;98750.94;;;8.43
75658;BMP280;64255;49.892;17.884;2023-03-19T21:55:59;98747.47;;;8.33
75658;BMP280;64255;49.892;17.884;2023-03-19T21:58:34;98748.06;;;8.28
75658;BMP280;64255;49.892;17.884;2023-03-19T22:01:05;98736.06;;;8.33
75658;BMP280;64255;49.892;17.884;2023-03-19T22:03:38;98736.06;;;8.33
75658;BMP280;64255;49.892;17.884;2023-03-19T22:06:06;98738.75;;;8.33
75658;BMP280;64255;49.892;17.884;2023-03-19T22:08:33;98736.19;;;8.29
75658;BMP280;64255;49.892;17.884;2023-03-19T22:11:01;98742.84;;;8.24
75658;BMP280;64255;49.892;17.884;2023-03-19T22:13:31;98733.38;;;8.23
75658;BMP280;64255;49.892;17.884;2023-03-19T22:15:59;98723.59;;;8.20
75658;BMP280;64255;49.892;17.884;2023-03-19T22:18:27;98731.41;;;8.15
75658;BMP280;64255;49.892;17.884;2023-03-19T22:20:54;98732.44;;;8.08
75658;BMP280;64255;49.892;17.884;2023-03-19T22:23:22;98728.59;;;8.09
75658;BMP280;64255;49.892;17.884;2023-03-19T22:25:50;98725.59;;;8.07
75658;BMP280;64255;49.892;17.884;2023-03-19T22:28:33;98718.66;;;8.10
75658;BMP280;64255;49.892;17.884;2023-03-19T22:31:02;98719.69;;;8.12
75658;BMP280;64255;49.892;17.884;2023-03-19T22:33:30;98715.53;;;8.11
75658;BMP280;64255;49.892;17.884;2023-03-19T22:35:57;98714.09;;;8.10
75658;BMP280;64255;49.892;17.884;2023-03-19T22:38:24;98723.13;;;8.13
75658;BMP280;64255;49.892;17.884;2023-03-19T22:40:54;98722.63;;;8.05
75658;BMP280;64255;49.892;17.884;2023-03-19T22:43:34;98719.22;;;8.04
75658;BMP280;64255;49.892;17.884;2023-03-19T22:46:12;98714.13;;;7.88
75658;BMP280;64255;49.892;17.884;2023-03-19T22:48:43;98713.28;;;7.91
75658;BMP280;64255;49.892;17.884;2023-03-19T22:51:18;98717.13;;;7.90
75658;BMP280;64255;49.892;17.884;2023-03-19T22:53:46;98714.72;;;7.92
75658;BMP280;64255;49.892;17.884;2023-03-19T22:56:13;98717.84;;;7.90
75658;BMP280;64255;49.892;17.884;2023-03-19T22:58:41;98715.19;;;7.90
75658;BMP280;64255;49.892;17.884;2023-03-19T23:03:49;98714.50;;;7.77
75658;BMP280;64255;49.892;17.884;2023-03-19T23:06:20;98720.41;;;7.72
75658;BMP280;64255;49.892;17.884;2023-03-19T23:08:48;98714.59;;;7.64
75658;BMP280;64255;49.892;17.884;2023-03-19T23:11:15;98715.66;;;7.67
75658;BMP280;64255;49.892;17.884;2023-03-19T23:13:42;98707.47;;;7.61
75658;BMP280;64255;49.892;17.884;2023-03-19T23:16:22;98715.59;;;7.57
75658;BMP280;64255;49.892;17.884;2023-03-19T23:18:50;98709.34;;;7.51
75658;BMP280;64255;49.892;17.884;2023-03-19T23:21:19;98709.78;;;7.50
75658;BMP280;64255;49.892;17.884;2023-03-19T23:23:47;98705.31;;;7.47
75658;BMP280;64255;49.892;17.884;2023-03-19T23:26:30;98711.38;;;7.47
75658;BMP280;64255;49.892;17.884;2023-03-19T23:29:05;98708.88;;;7.43
75658;BMP280;64255;49.892;17.884;2023-03-19T23:31:33;98705.13;;;7.41
75658;BMP280;64255;49.892;17.884;2023-03-19T23:34:00;98701.41;;;7.38
75658;BMP280;64255;49.892;17.884;2023-03-19T23:36:28;98703.72;;;7.27
75658;BMP280;64255;49.892;17.884;2023-03-19T23:38:55;98702.66;;;7.24
75658;BMP280;64255;49.892;17.884;2023-03-19T23:41:24;98710.88;;;7.17
75658;BMP280;64255;49.892;17.884;2023-03-19T23:43:53;98712.38;;;7.18
75658;BMP280;64255;49.892;17.884;2023-03-19T23:46:21;98707.81;;;7.19
75658;BMP280;64255;49.892;17.884;2023-03-19T23:48:49;98705.75;;;7.23
75658;BMP280;64255;49.892;17.884;2023-03-19T23:51:16;98700.94;;;7.31
75658;BMP280;64255;49.892;17.884;2023-03-19T23:53:44;98699.63;;;7.35
75658;BMP280;64255;49.892;17.884;2023-03-19T23:56:23;98699.97;;;7.47
75658;BMP280;64255;49.892;17.884;2023-03-19T23:58:54;98699.56;;;7.48
